sensor_id;sensor_type;location;lat;lon;timestamp;pressure;altitude;pressure_sealevel;temperature;humidity
14383;BME280;7275;50.328;8.720;2023-05-29T00:02:22;99939.22;;;22.45;32.36
14383;BME280;7275;50.328;8.720;2023-05-29T00:04:51;99933.69;;;22.47;32.40
14383;BME280;7275;50.328;8.720;2023-05-29T00:07:20;99936.50;;;22.45;32.48
14383;BME280;7275;50.328;8.720;2023-05-29T00:09:47;99938.34;;;22.45;32.74
14383;BME280;7275;50.328;8.720;2023-05-29T00:12:15;99938.47;;;22.43;32.42
14383;BME280;7275;50.328;8.720;2023-05-29T00:14:42;99932.34;;;22.41;32.72
14383;BME280;7275;50.328;8.720;2023-05-29T00:17:10;99937.63;;;22.43;32.62
14383;BME280;7275;50.328;8.720;2023-05-29T00:19:39;99926.00;;;22.42;32.71
14383;BME280;7275;50.328;8.720;2023-05-29T00:22:08;99931.50;;;22.41;32.78
14383;BME280;7275;50.328;8.720;2023-05-29T00:24:35;99922.59;;;22.40;32.85
14383;BME280;7275;50.328;8.720;2023-05-29T00:27:03;99921.84;;;22.38;33.04
14383;BME280;7275;50.328;8.720;2023-05-29T00:29:31;99914.75;;;22.37;32.78
14383;BME280;7275;50.328;8.720;2023-05-29T00:31:58;99915.72;;;22.36;33.00
14383;BME280;7275;50.328;8.720;2023-05-29T00:34:26;99916.69;;;22.35;32.89
14383;BME280;7275;50.328;8.720;2023-05-29T00:36:54;99928.34;;;22.36;32.85
14383;BME280;7275;50.328;8.720;2023-05-29T00:39:23;99921.22;;;22.35;33.19
14383;BME280;7275;50.328;8.720;2023-05-29T00:41:50;99931.41;;;22.31;33.41
14383;BME280;7275;50.328;8.720;2023-05-29T00:44:18;99924.78;;;22.24;33.13
14383;BME280;7275;50.328;8.720;2023-05-29T00:46:47;99928.34;;;22.24;33.32
14383;BME280;7275;50.328;8.720;2023-05-29T00:49:16;99920.63;;;22.20;33.17
14383;BME280;7275;50.328;8.720;2023-05-29T00:51:43;99921.75;;;22.17;33.16
14383;BME280;7275;50.328;8.720;2023-05-29T00:54:13;99926.53;;;22.14;33.38
14383;BME280;7275;50.328;8.720;2023-05-29T00:56:43;99915.28;;;22.09;33.54
14383;BME280;7275;50.328;8.720;2023-05-29T00:59:11;99926.31;;;22.06;33.35
14383;BME280;7275;50.328;8.720;2023-05-29T01:01:39;99929.13;;;22.04;33.58
14383;BME280;7275;50.328;8.720;2023-05-29T01:04:07;99922.28;;;22.00;33.50
14383;BME280;7275;50.328;8.720;2023-05-29T01:06:38;99933.41;;;21.96;33.50
14383;BME280;7275;50.328;8.720;2023-05-29T01:09:07;99930.84;;;21.94;33.73
14383;BME280;7275;50.328;8.720;2023-05-29T01:11:41;99917.63;;;21.91;33.75
14383;BME280;7275;50.328;8.720;2023-05-29T01:14:19;99933.91;;;21.90;33.85
14383;BME280;7275;50.328;8.720;2023-05-29T01:16:57;99928.75;;;21.87;33.93
14383;BME280;7275;50.328;8.720;2023-05-29T01:19:45;99929.00;;;21.84;33.99
14383;BME280;7275;50.328;8.720;2023-05-29T01:22:22;99930.97;;;21.82;33.74
14383;BME280;7275;50.328;8.720;2023-05-29T01:24:58;99934.59;;;21.81;33.83
14383;BME280;7275;50.328;8.720;2023-05-29T01:27:33;99942.94;;;21.78;33.89
14383;BME280;7275;50.328;8.720;2023-05-29T01:30:03;99939.50;;;21.76;33.78
14383;BME280;7275;50.328;8.720;2023-05-29T01:32:32;99939.75;;;21.73;33.90
14383;BME280;7275;50.328;8.720;2023-05-29T01:35:00;99935.44;;;21.70;33.98
14383;BME280;7275;50.328;8.720;2023-05-29T01:37:28;99927.63;;;21.67;34.07
14383;BME280;7275;50.328;8.720;2023-05-29T01:39:55;99935.06;;;21.64;34.23
14383;BME280;7275;50.328;8.720;2023-05-29T01:42:23;99925.53;;;21.60;34.34
14383;BME280;7275;50.328;8.720;2023-05-29T01:44:52;99928.47;;;21.57;34.26
14383;BME280;7275;50.328;8.720;2023-05-29T01:47:20;99931.41;;;21.54;34.31
14383;BME280;7275;50.328;8.720;2023-05-29T01:49:49;99931.53;;;21.52;34.44
14383;BME280;7275;50.328;8.720;2023-05-29T01:52:17;99925.53;;;21.48;34.45
14383;BME280;7275;50.328;8.720;2023-05-29T01:54:45;99929.19;;;21.47;34.35
14383;BME280;7275;50.328;8.720;2023-05-29T01:57:13;99934.78;;;21.44;34.68
14383;BME280;7275;50.328;8.720;2023-05-29T01:59:40;99934.94;;;21.43;34.54
14383;BME280;7275;50.328;8.720;2023-05-29T02:02:10;99936.00;;;21.40;34.52
14383;BME280;7275;50.328;8.720;2023-05-29T02:04:38;99940.78;;;21.37;34.52
14383;BME280;7275;50.328;8.720;2023-05-29T02:07:05;99943.81;;;21.32;34.62
14383;BME280;7275;50.328;8.720;2023-05-29T02:09:34;99944.19;;;21.28;34.88
14383;BME280;7275;50.328;8.720;2023-05-29T02:12:02;99938.31;;;21.23;34.99
14383;BME280;7275;50.328;8.720;2023-05-29T02:14:30;99942.22;;;21.19;34.97
14383;BME280;7275;50.328;8.720;2023-05-29T02:16:58;99940.75;;;21.15;35.10
14383;BME280;7275;50.328;8.720;2023-05-29T02:19:29;99940.09;;;21.11;35.30
14383;BME280;7275;50.328;8.720;2023-05-29T02:21:56;99937.88;;;21.05;35.36
14383;BME280;7275;50.328;8.720;2023-05-29T02:24:24;99936.50;;;21.00;35.52
14383;BME280;7275;50.328;8.720;2023-05-29T02:26:51;99941.25;;;20.96;35.55
14383;BME280;7275;50.328;8.720;2023-05-29T02:29:19;99938.91;;;20.92;35.71
14383;BME280;7275;50.328;8.720;2023-05-29T02:31:46;99933.75;;;20.89;35.93
14383;BME280;7275;50.328;8.720;2023-05-29T02:34:14;99934.00;;;20.86;35.78
14383;BME280;7275;50.328;8.720;2023-05-29T02:36:43;99931.53;;;20.83;35.98
14383;BME280;7275;50.328;8.720;2023-05-29T02:39:10;99931.88;;;20.78;35.79
14383;BME280;7275;50.328;8.720;2023-05-29T02:41:38;99934.06;;;20.73;36.00
14383;BME280;7275;50.328;8.720;2023-05-29T02:44:06;99939.66;;;20.70;36.09
14383;BME280;7275;50.328;8.720;2023-05-29T02:46:33;99934.75;;;20.64;36.36
14383;BME280;7275;50.328;8.720;2023-05-29T02:49:01;99938.66;;;20.60;36.43
14383;BME280;7275;50.328;8.720;2023-05-29T02:51:29;99940.72;;;20.56;36.58
14383;BME280;7275;50.328;8.720;2023-05-29T02:53:59;99944.59;;;20.52;36.71
14383;BME280;7275;50.328;8.720;2023-05-29T02:56:27;99948.38;;;20.50;36.75
14383;BME280;7275;50.328;8.720;2023-05-29T02:58:55;99951.38;;;20.45;36.87
14383;BME280;7275;50.328;8.720;2023-05-29T03:01:22;99952.47;;;20.43;36.89
14383;BME280;7275;50.328;8.720;2023-05-29T03:03:50;99947.34;;;20.40;37.09
14383;BME280;7275;50.328;8.720;2023-05-29T03:06:18;99940.56;;;20.34;37.17
14383;BME280;7275;50.328;8.720;2023-05-29T03:08:46;99960.56;;;20.30;37.20
14383;BME280;7275;50.328;8.720;2023-05-29T03:11:15;99957.38;;;20.25;37.31
14383;BME280;7275;50.328;8.720;2023-05-29T03:13:43;99957.56;;;20.22;37.49
14383;BME280;7275;50.328;8.720;2023-05-29T03:16:12;99957.88;;;20.18;37.59
14383;BME280;7275;50.328;8.720;2023-05-29T03:18:40;99958.94;;;20.15;37.79
14383;BME280;7275;50.328;8.720;2023-05-29T03:21:08;99962.81;;;20.11;37.89
14383;BME280;7275;50.328;8.720;2023-05-29T03:23:35;99965.75;;;20.08;38.09
14383;BME280;7275;50.328;8.720;2023-05-29T03:26:03;99964.25;;;20.04;38.14
14383;BME280;7275;50.328;8.720;2023-05-29T03:28:33;99960.06;;;20.00;38.18
14383;BME280;7275;50.328;8.720;2023-05-29T03:31:00;99968.34;;;19.97;38.27
14383;BME280;7275;50.328;8.720;2023-05-29T03:33:28;99966.63;;;19.96;38.33
14383;BME280;7275;50.328;8.720;2023-05-29T03:35:56;99965.97;;;19.92;38.52
14383;BME280;7275;50.328;8.720;2023-05-29T03:38:23;99975.13;;;19.90;38.51
14383;BME280;7275;50.328;8.720;2023-05-29T03:40:51;99976.19;;;19.87;38.68
14383;BME280;7275;50.328;8.720;2023-05-29T03:43:18;99973.72;;;19.84;38.69
14383;BME280;7275;50.328;8.720;2023-05-29T03:45:47;99973.81;;;19.83;38.99
14383;BME280;7275;50.328;8.720;2023-05-29T03:48:15;99974.78;;;19.82;38.94
14383;BME280;7275;50.328;8.720;2023-05-29T03:50:43;99972.22;;;19.80;38.88
14383;BME280;7275;50.328;8.720;2023-05-29T03:53:11;99975.97;;;19.78;39.13
14383;BME280;7275;50.328;8.720;2023-05-29T03:55:39;99981.34;;;19.78;39.22
14383;BME280;7275;50.328;8.720;2023-05-29T03:58:07;99987.56;;;19.78;39.22
14383;BME280;7275;50.328;8.720;2023-05-29T04:00:34;99980.59;;;19.76;39.26
14383;BME280;7275;50.328;8.720;2023-05-29T04:03:03;99993.03;;;19.77;39.39
14383;BME280;7275;50.328;8.720;2023-05-29T04:05:31;99996.59;;;19.77;39.44
14383;BME280;7275;50.328;8.720;2023-05-29T04:08:00;99997.44;;;19.78;39.49
14383;BME280;7275;50.328;8.720;2023-05-29T04:10:41;100001.84;;;19.79;39.64
14383;BME280;7275;50.328;8.720;2023-05-29T04:13:09;100018.69;;;19.81;39.68
14383;BME280;7275;50.328;8.720;2023-05-29T04:15:37;100012.34;;;19.82;39.65
14383;BME280;7275;50.328;8.720;2023-05-29T04:18:06;100011.28;;;19.84;39.74
14383;BME280;7275;50.328;8.720;2023-05-29T04:20:33;100017.50;;;19.85;39.75
14383;BME280;7275;50.328;8.720;2023-05-29T04:23:01;100025.44;;;19.86;39.78
14383;BME280;7275;50.328;8.720;2023-05-29T04:25:30;100024.38;;;19.89;39.90
14383;BME280;7275;50.328;8.720;2023-05-29T04:27:58;100035.00;;;19.90;39.92
14383;BME280;7275;50.328;8.720;2023-05-29T04:30:28;100040.28;;;19.92;40.06
14383;BME280;7275;50.328;8.720;2023-05-29T04:32:58;100039.19;;;19.94;39.99
14383;BME280;7275;50.328;8.720;2023-05-29T04:35:27;100040.69;;;19.99;40.17
14383;BME280;7275;50.328;8.720;2023-05-29T04:37:55;100045.84;;;20.02;40.20
14383;BME280;7275;50.328;8.720;2023-05-29T04:40:24;100042.84;;;20.06;40.16
14383;BME280;7275;50.328;8.720;2023-05-29T04:42:51;100050.66;;;20.09;40.18
14383;BME280;7275;50.328;8.720;2023-05-29T04:45:19;100056.69;;;20.13;40.15
14383;BME280;7275;50.328;8.720;2023-05-29T04:47:47;100053.03;;;20.14;40.33
14383;BME280;7275;50.328;8.720;2023-05-29T04:50:16;100060.88;;;20.17;40.38
14383;BME280;7275;50.328;8.720;2023-05-29T04:52:45;100063.28;;;20.21;40.45
14383;BME280;7275;50.328;8.720;2023-05-29T04:55:13;100063.16;;;20.23;40.37
14383;BME280;7275;50.328;8.720;2023-05-29T04:57:40;100062.09;;;20.25;40.61
14383;BME280;7275;50.328;8.720;2023-05-29T05:00:09;100074.41;;;20.28;40.54
14383;BME280;7275;50.328;8.720;2023-05-29T05:02:41;100076.03;;;20.30;40.54
14383;BME280;7275;50.328;8.720;2023-05-29T05:05:09;100072.16;;;20.34;40.54
14383;BME280;7275;50.328;8.720;2023-05-29T05:07:37;100076.31;;;20.38;40.63
14383;BME280;7275;50.328;8.720;2023-05-29T05:10:07;100079.69;;;20.42;40.67
14383;BME280;7275;50.328;8.720;2023-05-29T05:12:35;100086.44;;;20.47;40.60
14383;BME280;7275;50.328;8.720;2023-05-29T05:15:04;100077.06;;;20.53;40.67
14383;BME280;7275;50.328;8.720;2023-05-29T05:17:32;100076.84;;;20.56;40.68
14383;BME280;7275;50.328;8.720;2023-05-29T05:19:59;100082.75;;;20.61;40.75
14383;BME280;7275;50.328;8.720;2023-05-29T05:22:27;100081.56;;;20.65;40.82
14383;BME280;7275;50.328;8.720;2023-05-29T05:24:55;100079.28;;;20.71;40.97
14383;BME280;7275;50.328;8.720;2023-05-29T05:27:24;100080.78;;;20.76;41.05
14383;BME280;7275;50.328;8.720;2023-05-29T05:29:51;100080.34;;;20.82;40.84
14383;BME280;7275;50.328;8.720;2023-05-29T05:32:19;100082.66;;;20.86;40.87
14383;BME280;7275;50.328;8.720;2023-05-29T05:34:46;100080.50;;;20.91;40.82
14383;BME280;7275;50.328;8.720;2023-05-29T05:37:14;100076.41;;;20.98;40.91
14383;BME280;7275;50.328;8.720;2023-05-29T05:39:42;100069.63;;;21.05;40.75
14383;BME280;7275;50.328;8.720;2023-05-29T05:42:09;100073.56;;;21.12;40.97
14383;BME280;7275;50.328;8.720;2023-05-29T05:44:38;100063.56;;;21.14;40.99
14383;BME280;7275;50.328;8.720;2023-05-29T05:47:06;100075.47;;;21.23;40.86
14383;BME280;7275;50.328;8.720;2023-05-29T05:49:34;100069.63;;;21.29;40.88
14383;BME280;7275;50.328;8.720;2023-05-29T05:52:02;100061.09;;;21.35;40.83
14383;BME280;7275;50.328;8.720;2023-05-29T05:54:29;100077.63;;;21.41;40.88
14383;BME280;7275;50.328;8.720;2023-05-29T05:56:57;100053.69;;;21.49;40.90
14383;BME280;7275;50.328;8.720;2023-05-29T05:59:24;100055.03;;;21.55;40.82
14383;BME280;7275;50.328;8.720;2023-05-29T06:01:54;100063.50;;;21.62;40.89
14383;BME280;7275;50.328;8.720;2023-05-29T06:04:22;100074.53;;;21.70;40.57
14383;BME280;7275;50.328;8.720;2023-05-29T06:06:50;100074.69;;;21.79;40.83
14383;BME280;7275;50.328;8.720;2023-05-29T06:09:18;100067.88;;;21.86;40.79
14383;BME280;7275;50.328;8.720;2023-05-29T06:11:48;100077.06;;;21.95;40.49
14383;BME280;7275;50.328;8.720;2023-05-29T06:14:16;100076.38;;;22.04;40.45
14383;BME280;7275;50.328;8.720;2023-05-29T06:16:43;100074.06;;;22.10;40.32
14383;BME280;7275;50.328;8.720;2023-05-29T06:19:12;100077.97;;;22.17;40.76
14383;BME280;7275;50.328;8.720;2023-05-29T06:21:41;100079.94;;;22.26;40.65
14383;BME280;7275;50.328;8.720;2023-05-29T06:24:08;100078.13;;;22.38;40.23
14383;BME280;7275;50.328;8.720;2023-05-29T06:26:36;100080.78;;;22.49;40.53
14383;BME280;7275;50.328;8.720;2023-05-29T06:29:04;100076.50;;;22.58;40.19
14383;BME280;7275;50.328;8.720;2023-05-29T06:31:33;100091.09;;;22.66;40.22
14383;BME280;7275;50.328;8.720;2023-05-29T06:34:00;100082.53;;;22.72;40.24
14383;BME280;7275;50.328;8.720;2023-05-29T06:36:29;100083.03;;;22.77;40.14
14383;BME280;7275;50.328;8.720;2023-05-29T06:38:58;100092.44;;;22.83;40.01
14383;BME280;7275;50.328;8.720;2023-05-29T06:41:26;100089.13;;;22.90;39.74
14383;BME280;7275;50.328;8.720;2023-05-29T06:43:54;100087.50;;;22.99;39.87
14383;BME280;7275;50.328;8.720;2023-05-29T06:46:21;100093.00;;;23.09;39.81
14383;BME280;7275;50.328;8.720;2023-05-29T06:48:49;100086.25;;;23.14;39.58
14383;BME280;7275;50.328;8.720;2023-05-29T06:51:17;100091.47;;;23.27;39.96
14383;BME280;7275;50.328;8.720;2023-05-29T06:53:46;100096.16;;;23.36;39.78
14383;BME280;7275;50.328;8.720;2023-05-29T06:56:14;100097.22;;;23.44;39.52
14383;BME280;7275;50.328;8.720;2023-05-29T06:58:41;100099.13;;;23.53;39.41
14383;BME280;7275;50.328;8.720;2023-05-29T07:01:09;100101.94;;;23.63;39.28
14383;BME280;7275;50.328;8.720;2023-05-29T07:03:37;100101.13;;;23.72;39.15
14383;BME280;7275;50.328;8.720;2023-05-29T07:06:05;100095.66;;;23.83;39.11
14383;BME280;7275;50.328;8.720;2023-05-29T07:08:33;100101.16;;;23.93;38.89
14383;BME280;7275;50.328;8.720;2023-05-29T07:11:02;100106.63;;;24.02;38.69
14383;BME280;7275;50.328;8.720;2023-05-29T07:13:30;100105.00;;;24.11;38.62
14383;BME280;7275;50.328;8.720;2023-05-29T07:15:57;100110.72;;;24.17;38.55
14383;BME280;7275;50.328;8.720;2023-05-29T07:18:35;100108.22;;;24.25;38.56
14383;BME280;7275;50.328;8.720;2023-05-29T07:21:03;100112.69;;;24.36;38.29
14383;BME280;7275;50.328;8.720;2023-05-29T07:23:30;100092.81;;;24.46;38.31
14383;BME280;7275;50.328;8.720;2023-05-29T07:25:58;100102.41;;;24.60;37.92
14383;BME280;7275;50.328;8.720;2023-05-29T07:28:27;100110.41;;;24.71;38.00
14383;BME280;7275;50.328;8.720;2023-05-29T07:30:55;100105.78;;;24.83;37.75
14383;BME280;7275;50.328;8.720;2023-05-29T07:33:23;100102.72;;;24.97;37.89
14383;BME280;7275;50.328;8.720;2023-05-29T07:35:51;100108.16;;;25.16;37.92
14383;BME280;7275;50.328;8.720;2023-05-29T07:38:18;100097.78;;;25.30;37.77
14383;BME280;7275;50.328;8.720;2023-05-29T07:40:46;100109.38;;;25.42;37.44
14383;BME280;7275;50.328;8.720;2023-05-29T07:43:13;100098.53;;;25.52;37.35
14383;BME280;7275;50.328;8.720;2023-05-29T07:45:43;100108.09;;;25.65;37.28
14383;BME280;7275;50.328;8.720;2023-05-29T07:48:10;100093.56;;;25.76;36.98
14383;BME280;7275;50.328;8.720;2023-05-29T07:50:38;100093.09;;;25.90;36.91
14383;BME280;7275;50.328;8.720;2023-05-29T07:53:06;100096.38;;;26.03;37.06
14383;BME280;7275;50.328;8.720;2023-05-29T07:55:34;100095.78;;;26.19;36.93
14383;BME280;7275;50.328;8.720;2023-05-29T07:58:01;100099.75;;;26.34;37.13
14383;BME280;7275;50.328;8.720;2023-05-29T08:00:29;100097.13;;;26.51;36.80
14383;BME280;7275;50.328;8.720;2023-05-29T08:02:58;100101.03;;;26.66;36.59
14383;BME280;7275;50.328;8.720;2023-05-29T08:05:26;100102.47;;;26.80;36.48
14383;BME280;7275;50.328;8.720;2023-05-29T08:07:54;100103.81;;;26.93;36.27
14383;BME280;7275;50.328;8.720;2023-05-29T08:10:21;100110.59;;;27.07;36.25
14383;BME280;7275;50.328;8.720;2023-05-29T08:12:49;100101.22;;;27.19;35.95
14383;BME280;7275;50.328;8.720;2023-05-29T08:15:17;100090.84;;;27.32;35.63
14383;BME280;7275;50.328;8.720;2023-05-29T08:17:44;100098.78;;;27.43;35.26
14383;BME280;7275;50.328;8.720;2023-05-29T08:20:13;100096.88;;;27.53;35.73
14383;BME280;7275;50.328;8.720;2023-05-29T08:22:41;100096.78;;;27.63;35.29
14383;BME280;7275;50.328;8.720;2023-05-29T08:25:09;100096.16;;;27.69;34.92
14383;BME280;7275;50.328;8.720;2023-05-29T08:27:36;100103.22;;;27.80;35.08
14383;BME280;7275;50.328;8.720;2023-05-29T08:30:05;100095.13;;;27.88;34.77
14383;BME280;7275;50.328;8.720;2023-05-29T08:32:32;100095.19;;;27.96;34.50
14383;BME280;7275;50.328;8.720;2023-05-29T08:35:00;100088.84;;;28.05;34.68
14383;BME280;7275;50.328;8.720;2023-05-29T08:37:29;100095.72;;;28.17;34.46
14383;BME280;7275;50.328;8.720;2023-05-29T08:39:57;100097.00;;;28.30;34.84
14383;BME280;7275;50.328;8.720;2023-05-29T08:42:29;100102.03;;;28.43;34.57
14383;BME280;7275;50.328;8.720;2023-05-29T08:45:02;100099.16;;;28.53;34.39
14383;BME280;7275;50.328;8.720;2023-05-29T08:47:32;100095.34;;;28.63;34.24
14383;BME280;7275;50.328;8.720;2023-05-29T08:50:01;100099.81;;;28.72;34.14
14383;BME280;7275;50.328;8.720;2023-05-29T08:52:33;100098.81;;;28.81;34.03
14383;BME280;7275;50.328;8.720;2023-05-29T08:55:03;100096.13;;;28.89;33.74
14383;BME280;7275;50.328;8.720;2023-05-29T08:57:30;100106.06;;;28.98;33.56
14383;BME280;7275;50.328;8.720;2023-05-29T08:59:59;100097.41;;;29.11;33.35
14383;BME280;7275;50.328;8.720;2023-05-29T09:02:27;100104.78;;;29.18;33.57
14383;BME280;7275;50.328;8.720;2023-05-29T09:04:55;100099.53;;;29.25;33.39
14383;BME280;7275;50.328;8.720;2023-05-29T09:07:23;100097.66;;;29.34;32.97
14383;BME280;7275;50.328;8.720;2023-05-29T09:09:53;100097.84;;;29.40;32.82
14383;BME280;7275;50.328;8.720;2023-05-29T09:12:21;100097.53;;;29.51;33.25
14383;BME280;7275;50.328;8.720;2023-05-29T09:14:49;100100.63;;;29.64;32.75
14383;BME280;7275;50.328;8.720;2023-05-29T09:17:17;100095.22;;;29.80;32.93
14383;BME280;7275;50.328;8.720;2023-05-29T09:19:44;100088.88;;;29.96;32.86
14383;BME280;7275;50.328;8.720;2023-05-29T09:22:13;100084.63;;;30.10;32.73
14383;BME280;7275;50.328;8.720;2023-05-29T09:24:42;100096.53;;;30.17;32.01
14383;BME280;7275;50.328;8.720;2023-05-29T09:27:11;100093.81;;;30.25;32.04
14383;BME280;7275;50.328;8.720;2023-05-29T09:29:39;100087.34;;;30.34;31.98
14383;BME280;7275;50.328;8.720;2023-05-29T09:32:08;100093.13;;;30.47;32.03
14383;BME280;7275;50.328;8.720;2023-05-29T09:34:36;100090.69;;;30.60;32.06
14383;BME280;7275;50.328;8.720;2023-05-29T09:37:05;100092.69;;;30.74;31.76
14383;BME280;7275;50.328;8.720;2023-05-29T09:39:44;100084.97;;;30.86;31.69
14383;BME280;7275;50.328;8.720;2023-05-29T09:42:14;100091.78;;;30.98;31.53
14383;BME280;7275;50.328;8.720;2023-05-29T09:44:43;100088.63;;;31.09;30.96
14383;BME280;7275;50.328;8.720;2023-05-29T09:47:14;100081.06;;;31.19;30.71
14383;BME280;7275;50.328;8.720;2023-05-29T09:49:41;100083.09;;;31.25;30.71
14383;BME280;7275;50.328;8.720;2023-05-29T09:52:11;100080.97;;;31.35;30.83
14383;BME280;7275;50.328;8.720;2023-05-29T09:54:42;100084.66;;;31.50;30.68
14383;BME280;7275;50.328;8.720;2023-05-29T09:57:14;100077.00;;;31.68;30.74
14383;BME280;7275;50.328;8.720;2023-05-29T09:59:43;100086.13;;;31.83;30.63
14383;BME280;7275;50.328;8.720;2023-05-29T10:02:11;100076.94;;;31.99;30.27
14383;BME280;7275;50.328;8.720;2023-05-29T10:04:40;100076.97;;;32.13;30.21
14383;BME280;7275;50.328;8.720;2023-05-29T10:07:09;100079.53;;;32.29;29.86
14383;BME280;7275;50.328;8.720;2023-05-29T10:09:41;100079.88;;;32.49;29.41
14383;BME280;7275;50.328;8.720;2023-05-29T10:12:11;100082.25;;;32.67;29.76
14383;BME280;7275;50.328;8.720;2023-05-29T10:14:41;100087.31;;;32.84;29.41
14383;BME280;7275;50.328;8.720;2023-05-29T10:17:13;100085.25;;;33.01;29.24
14383;BME280;7275;50.328;8.720;2023-05-29T10:19:42;100086.09;;;33.16;28.96
14383;BME280;7275;50.328;8.720;2023-05-29T10:22:13;100080.09;;;33.27;28.49
14383;BME280;7275;50.328;8.720;2023-05-29T10:24:41;100080.84;;;33.36;28.14
14383;BME280;7275;50.328;8.720;2023-05-29T10:27:09;100076.91;;;33.45;28.72
14383;BME280;7275;50.328;8.720;2023-05-29T10:29:41;100075.56;;;33.55;28.18
14383;BME280;7275;50.328;8.720;2023-05-29T10:32:19;100077.81;;;33.66;28.13
14383;BME280;7275;50.328;8.720;2023-05-29T10:34:53;100073.50;;;33.78;27.25
14383;BME280;7275;50.328;8.720;2023-05-29T10:37:32;100064.09;;;33.88;27.72
14383;BME280;7275;50.328;8.720;2023-05-29T10:40:06;100064.19;;;34.01;27.65
14383;BME280;7275;50.328;8.720;2023-05-29T10:42:43;100069.16;;;34.12;27.54
14383;BME280;7275;50.328;8.720;2023-05-29T10:45:51;100053.00;;;34.23;27.52
14383;BME280;7275;50.328;8.720;2023-05-29T10:48:41;100068.09;;;34.40;27.51
14383;BME280;7275;50.328;8.720;2023-05-29T10:51:24;100061.22;;;34.51;27.08
14383;BME280;7275;50.328;8.720;2023-05-29T10:53:52;100054.31;;;34.62;26.83
14383;BME280;7275;50.328;8.720;2023-05-29T10:56:21;100047.59;;;34.71;26.14
14383;BME280;7275;50.328;8.720;2023-05-29T10:58:53;100055.88;;;34.77;26.40
14383;BME280;7275;50.328;8.720;2023-05-29T11:01:23;100047.84;;;34.82;25.84
14383;BME280;7275;50.328;8.720;2023-05-29T11:03:54;100047.69;;;34.90;25.64
14383;BME280;7275;50.328;8.720;2023-05-29T11:06:42;100043.91;;;34.98;25.14
14383;BME280;7275;50.328;8.720;2023-05-29T11:09:26;100040.78;;;35.01;25.19
14383;BME280;7275;50.328;8.720;2023-05-29T11:12:14;100038.06;;;35.07;25.26
14383;BME280;7275;50.328;8.720;2023-05-29T11:14:54;100041.25;;;35.17;25.00
14383;BME280;7275;50.328;8.720;2023-05-29T11:17:43;100044.25;;;35.22;25.51
14383;BME280;7275;50.328;8.720;2023-05-29T11:20:28;100044.03;;;35.30;25.40
14383;BME280;7275;50.328;8.720;2023-05-29T11:23:01;100043.03;;;35.38;24.55
14383;BME280;7275;50.328;8.720;2023-05-29T11:25:32;100040.69;;;35.42;24.65
14383;BME280;7275;50.328;8.720;2023-05-29T11:28:01;100039.66;;;35.49;24.59
14383;BME280;7275;50.328;8.720;2023-05-29T11:30:30;100033.97;;;35.57;24.20
14383;BME280;7275;50.328;8.720;2023-05-29T11:33:01;100036.31;;;35.60;23.71
14383;BME280;7275;50.328;8.720;2023-05-29T11:35:35;100038.84;;;35.62;23.75
14383;BME280;7275;50.328;8.720;2023-05-29T11:38:05;100033.13;;;35.63;24.10
14383;BME280;7275;50.328;8.720;2023-05-29T11:40:35;100039.28;;;35.65;23.97
14383;BME280;7275;50.328;8.720;2023-05-29T11:43:04;100033.56;;;35.67;23.91
14383;BME280;7275;50.328;8.720;2023-05-29T11:45:32;100037.59;;;35.71;23.42
14383;BME280;7275;50.328;8.720;2023-05-29T11:48:02;100037.38;;;35.72;23.49
14383;BME280;7275;50.328;8.720;2023-05-29T11:50:31;100036.09;;;35.75;23.46
14383;BME280;7275;50.328;8.720;2023-05-29T11:53:00;100037.16;;;35.80;23.95
14383;BME280;7275;50.328;8.720;2023-05-29T11:55:28;100037.78;;;35.82;23.10
14383;BME280;7275;50.328;8.720;2023-05-29T11:57:57;100030.16;;;35.84;22.95
14383;BME280;7275;50.328;8.720;2023-05-29T12:00:27;100034.84;;;35.84;23.28
14383;BME280;7275;50.328;8.720;2023-05-29T12:02:58;100026.16;;;35.80;23.00
14383;BME280;7275;50.328;8.720;2023-05-29T12:05:31;100026.38;;;35.79;23.29
14383;BME280;7275;50.328;8.720;2023-05-29T12:07:59;100033.59;;;35.80;23.22
14383;BME280;7275;50.328;8.720;2023-05-29T12:10:28;100026.59;;;35.84;23.30
14383;BME280;7275;50.328;8.720;2023-05-29T12:12:58;100027.88;;;35.88;23.02
14383;BME280;7275;50.328;8.720;2023-05-29T12:15:27;100035.91;;;35.89;23.28
14383;BME280;7275;50.328;8.720;2023-05-29T12:17:55;100035.03;;;35.89;23.37
14383;BME280;7275;50.328;8.720;2023-05-29T12:20:25;100027.66;;;35.96;22.53
14383;BME280;7275;50.328;8.720;2023-05-29T12:22:59;100022.16;;;36.02;22.78
14383;BME280;7275;50.328;8.720;2023-05-29T12:25:27;100032.09;;;36.10;23.11
14383;BME280;7275;50.328;8.720;2023-05-29T12:27:56;100027.84;;;36.21;22.75
14383;BME280;7275;50.328;8.720;2023-05-29T12:30:24;100019.13;;;36.30;22.94
14383;BME280;7275;50.328;8.720;2023-05-29T12:32:59;100026.56;;;36.36;22.56
14383;BME280;7275;50.328;8.720;2023-05-29T12:35:29;100022.97;;;36.42;22.15
14383;BME280;7275;50.328;8.720;2023-05-29T12:37:59;100016.16;;;36.45;22.20
14383;BME280;7275;50.328;8.720;2023-05-29T12:40:28;100021.25;;;36.48;22.20
14383;BME280;7275;50.328;8.720;2023-05-29T12:42:58;100024.63;;;36.50;22.19
14383;BME280;7275;50.328;8.720;2023-05-29T12:45:27;100023.78;;;36.56;22.02
14383;BME280;7275;50.328;8.720;2023-05-29T12:47:56;100030.31;;;36.61;21.98
14383;BME280;7275;50.328;8.720;2023-05-29T12:50:25;100039.03;;;36.65;22.61
14383;BME280;7275;50.328;8.720;2023-05-29T12:52:54;100024.38;;;36.71;22.40
14383;BME280;7275;50.328;8.720;2023-05-29T12:55:23;100021.59;;;36.71;22.31
14383;BME280;7275;50.328;8.720;2023-05-29T12:57:51;100031.78;;;36.70;22.22
14383;BME280;7275;50.328;8.720;2023-05-29T13:00:20;100022.47;;;36.71;22.01
14383;BME280;7275;50.328;8.720;2023-05-29T13:02:48;100019.03;;;36.76;22.08
14383;BME280;7275;50.328;8.720;2023-05-29T13:05:16;100023.47;;;36.83;22.11
14383;BME280;7275;50.328;8.720;2023-05-29T13:07:46;100023.25;;;36.85;21.75
14383;BME280;7275;50.328;8.720;2023-05-29T13:10:14;100019.63;;;36.84;22.12
14383;BME280;7275;50.328;8.720;2023-05-29T13:12:43;100015.19;;;36.83;22.06
14383;BME280;7275;50.328;8.720;2023-05-29T13:15:12;100021.97;;;36.81;22.03